Terminal Aerodrome Forecast
Issued by NWS

Home | Current Version | Previous Version | Text Only | Print | Product List | Glossary On
Versions: 1 2 3 4 5 6 7 8 9 10 11 12 13 14
000
FTUS44 KLZK 211300 AAB
TAFBPK
TAF AMD
KBPK 211321Z 2113/2212 17006KT P6SM VCSH BKN040 BKN100
      TEMPO 2113/2117 2SM BR BKN040
     FM211800 22006KT P6SM -TSRA BKN040CB OVC100
     FM220000 VRB05KT P6SM VCSH BKN040 OVC100
     FM220600 VRB03KT P6SM SCT100=

USA.gov is the U.S. government's official web portal to all federal, state and local government web resources and services.